KLLJ

Challis Airport

Challis, Idaho, USA
METAR KLLJ 140355Z AUTO 00000KT 10SM CLR M04/M11 A3050 RMK AO2 SLP374 T10391111
Observed Flight Rules
Nov-14 @ 03:55 UTC (54 minutes ago) Visual Flight Rules
Visibility Clouds
10 miles
  • Clear skies
Temperatures Readings
Current -4°C / 25°F
Dewpoint -11°C / 12°F
Humidity 59%
Altimeter 30.5" Hg
Pressure 1037.4 hPa
Elevation 1536
METAR KLLJ 140355Z AUTO 00000KT 10SM CLR M04/M11 A3050 RMK AO2 SLP374 T10391111
Observed Flight Rules
Nov-14 @ 03:55 UTC
(54 minutes ago)
VFR
Clouds
  • Clear skies
Temperature Dewpoint
-4°C / 25°F -11°C / 12°F
Humidity Altimeter Pressure
59% 30.5" Hg 1037.4 hPa